Time;durP1;ratioP1;P1;durP2;ratioP2;P2;SDS_P1;SDS_P2;PMS_P1;PMS_P2;Temp;Humidity;BMP_temperature;BMP_pressure;BME280_temperature;BME280_humidity;BME280_pressure;Samples;Min_cycle;Max_cycle;Signal;HPM_P1;HPM_P2
2022/07/17 00:01:36;;;;;;;;;;;;;;;27.27;26.54;97324.44;4225558;28;5880;-71
2022/07/17 00:03:39;;;;;;;;;;;;;;;27.26;26.22;97317.38;4231174;28;5617;-71
2022/07/17 00:05:42;;;;;;;;;;;;;;;27.30;26.74;97319.53;4209119;28;5720;-70
2022/07/17 00:07:48;;;;;;;;;;;;;;;27.31;26.31;97315.72;4209515;28;5621;-71
2022/07/17 00:09:51;;;;;;;;;;;;;;;27.26;26.31;97328.25;4221978;28;5710;-71
2022/07/17 00:11:54;;;;;;;;;;;;;;;27.24;26.37;97311.44;4217704;28;5700;-70
2022/07/17 00:13:57;;;;;;;;;;;;;;;27.17;26.51;97316.38;4220105;28;5893;-71
2022/07/17 00:16:00;;;;;;;;;;;;;;;27.16;26.65;97324.81;4201807;28;5679;-72
2022/07/17 00:18:06;;;;;;;;;;;;;;;27.14;26.71;97325.13;4205803;28;5687;-71
2022/07/17 00:20:10;;;;;;;;;;;;;;;27.10;26.78;97320.56;4201240;28;5678;-70
2022/07/17 00:22:13;;;;;;;;;;;;;;;27.05;26.67;97313.25;4201254;28;5770;-71
2022/07/17 00:24:19;;;;;;;;;;;;;;;27.11;26.67;97333.84;4199422;28;5647;-71
2022/07/17 00:26:23;;;;;;;;;;;;;;;27.06;26.53;97325.72;4202884;28;5829;-71
2022/07/17 00:28:26;;;;;;;;;;;;;;;27.05;27.12;97329.53;4209143;28;5690;-71
2022/07/17 00:30:29;;;;;;;;;;;;;;;27.05;26.93;97324.09;4201142;28;5690;-71
2022/07/17 00:32:33;;;;;;;;;;;;;;;27.08;26.90;97334.41;4223914;28;5681;-71
2022/07/17 00:34:36;;;;;;;;;;;;;;;27.12;27.05;97332.72;4217549;28;5672;-71
2022/07/17 00:36:39;;;;;;;;;;;;;;;27.08;26.85;97334.41;4201076;28;5402;-71
2022/07/17 00:38:42;;;;;;;;;;;;;;;27.05;27.04;97332.25;4200592;28;5694;-71
2022/07/17 00:40:46;;;;;;;;;;;;;;;26.97;27.04;97327.44;4200639;28;5685;-70
2022/07/17 00:42:50;;;;;;;;;;;;;;;27.03;27.20;97337.16;4200264;28;5701;-71
2022/07/17 00:44:54;;;;;;;;;;;;;;;27.07;26.86;97335.50;4200389;28;5686;-71
2022/07/17 00:46:57;;;;;;;;;;;;;;;27.07;27.12;97327.38;4201966;28;5865;-71
2022/07/17 00:49:00;;;;;;;;;;;;;;;27.07;26.86;97332.78;4205538;28;5673;-71
2022/07/17 00:51:03;;;;;;;;;;;;;;;27.05;27.33;97334.97;4200689;28;5932;-71
2022/07/17 00:53:08;;;;;;;;;;;;;;;27.03;27.07;97331.72;4200238;28;5679;-71
2022/07/17 00:55:13;;;;;;;;;;;;;;;27.03;27.21;97342.59;4200852;28;5694;-71
2022/07/17 00:57:40;;;;;;;;;;;;;;;27.02;27.27;97332.81;4199931;28;5693;-71
2022/07/17 00:59:43;;;;;;;;;;;;;;;26.95;27.39;97329.59;4212294;28;5732;-71
2022/07/17 01:01:46;;;;;;;;;;;;;;;26.95;27.62;97324.16;4217323;28;5682;-71
2022/07/17 01:03:50;;;;;;;;;;;;;;;26.94;27.46;97327.97;4214536;28;5621;-71
2022/07/17 01:05:53;;;;;;;;;;;;;;;26.93;27.47;97332.59;4202946;28;5694;-71
2022/07/17 01:07:56;;;;;;;;;;;;;;;26.93;27.35;97345.34;4216767;28;5693;-71
2022/07/17 01:09:59;;;;;;;;;;;;;;;26.87;27.51;97349.22;4217413;28;5670;-71
2022/07/17 01:12:04;;;;;;;;;;;;;;;26.86;27.90;97347.59;4217249;28;5966;-70
2022/07/17 01:14:08;;;;;;;;;;;;;;;26.87;27.67;97338.38;4199502;28;5694;-70
2022/07/17 01:16:12;;;;;;;;;;;;;;;26.93;27.90;97342.63;4212074;28;5085;-70
2022/07/17 01:18:16;;;;;;;;;;;;;;;26.92;27.54;97341.03;4213212;28;5689;-70
2022/07/17 01:20:19;;;;;;;;;;;;;;;26.88;27.80;97342.69;4203991;28;5757;-70
2022/07/17 01:22:25;;;;;;;;;;;;;;;26.86;27.66;97347.59;4203676;28;5062;-71
2022/07/17 01:24:27;;;;;;;;;;;;;;;26.75;27.74;97340.66;4211729;28;5691;-70
2022/07/17 01:26:30;;;;;;;;;;;;;;;26.72;28.03;97338.47;4215580;28;5686;-70
2022/07/17 01:28:33;;;;;;;;;;;;;;;26.72;28.41;97346.63;4202171;28;5741;-70
2022/07/17 01:30:37;;;;;;;;;;;;;;;26.73;27.95;97348.22;4220329;28;5677;-71
2022/07/17 01:32:42;;;;;;;;;;;;;;;26.67;28.18;97344.75;4205429;28;5714;-70
2022/07/17 01:34:46;;;;;;;;;;;;;;;26.67;28.21;97345.56;4219464;28;5673;-71
2022/07/17 01:36:49;;;;;;;;;;;;;;;26.66;28.49;97345.84;4213679;28;5757;-70
2022/07/17 01:38:54;;;;;;;;;;;;;;;26.67;28.20;97353.72;4201913;28;6304;-70
2022/07/17 01:40:58;;;;;;;;;;;;;;;26.64;28.16;97351.56;4203366;28;5776;-70
2022/07/17 01:43:00;;;;;;;;;;;;;;;26.61;28.60;97356.72;4202693;28;5765;-70
2022/07/17 01:45:04;;;;;;;;;;;;;;;26.59;28.63;97369.75;4203339;28;5788;-71
2022/07/17 01:47:07;;;;;;;;;;;;;;;26.54;28.42;97354.34;4209145;28;6302;-71
2022/07/17 01:49:10;;;;;;;;;;;;;;;26.52;28.78;97363.88;4203215;28;5738;-70
2022/07/17 01:51:13;;;;;;;;;;;;;;;26.52;28.87;97358.44;4202994;28;5702;-71
2022/07/17 01:53:16;;;;;;;;;;;;;;;26.38;28.87;97358.25;4203334;28;5784;-70
2022/07/17 01:55:20;;;;;;;;;;;;;;;26.32;28.78;97357.44;4203220;28;5785;-71
2022/07/17 01:57:23;;;;;;;;;;;;;;;26.32;28.79;97353.94;4210267;28;5793;-71
2022/07/17 01:59:26;;;;;;;;;;;;;;;26.33;29.06;97360.97;4210972;28;5690;-70
2022/07/17 02:01:29;;;;;;;;;;;;;;;26.35;29.10;97361.50;4202324;28;6728;-69
2022/07/17 02:03:33;;;;;;;;;;;;;;;26.37;28.85;97353.91;4214067;28;5882;-69
2022/07/17 02:05:36;;;;;;;;;;;;;;;26.37;28.72;97351.19;4206051;28;5701;-70
2022/07/17 02:07:40;;;;;;;;;;;;;;;26.39;29.04;97344.44;4205767;28;5742;-70
2022/07/17 02:09:43;;;;;;;;;;;;;;;26.41;28.95;97355.00;4207520;28;5625;-70
2022/07/17 02:11:47;;;;;;;;;;;;;;;26.37;28.75;97357.44;4219618;28;5693;-70
2022/07/17 02:14:12;;;;;;;;;;;;;;;26.36;29.03;97363.09;4218868;28;5782;-69
2022/07/17 02:16:15;;;;;;;;;;;;;;;26.34;29.18;97357.16;4211182;28;5713;-69
2022/07/17 02:18:19;;;;;;;;;;;;;;;26.31;29.14;97358.53;4202801;28;5797;-70
2022/07/17 02:20:22;;;;;;;;;;;;;;;26.30;29.41;97364.25;4203363;28;5781;-69
2022/07/17 02:22:25;;;;;;;;;;;;;;;26.28;29.28;97363.72;4203045;28;5694;-70
2022/07/17 02:24:28;;;;;;;;;;;;;;;26.27;29.68;97373.72;4217006;28;5669;-70
2022/07/17 02:26:30;;;;;;;;;;;;;;;26.27;29.63;97372.91;4201885;28;5635;-70
2022/07/17 02:28:35;;;;;;;;;;;;;;;26.22;29.80;97367.53;4208341;28;5757;-70
2022/07/17 02:30:38;;;;;;;;;;;;;;;26.20;29.74;97361.59;4218318;28;5762;-70
2022/07/17 02:32:42;;;;;;;;;;;;;;;26.19;29.54;97359.97;4220023;28;5752;-70
2022/07/17 02:34:45;;;;;;;;;;;;;;;26.17;29.86;97368.38;4219885;28;5758;-70
2022/07/17 02:36:48;;;;;;;;;;;;;;;26.14;29.92;97363.50;4218851;28;5669;-70
2022/07/17 02:38:51;;;;;;;;;;;;;;;26.14;29.76;97368.91;4218837;28;5661;-70
2022/07/17 02:40:55;;;;;;;;;;;;;;;26.16;30.08;97365.94;4220323;28;6346;-70
2022/07/17 02:42:58;;;;;;;;;;;;;;;26.15;29.92;97367.03;4212904;28;5705;-70
2022/07/17 02:45:02;;;;;;;;;;;;;;;26.09;29.86;97371.66;4209894;28;5669;-70
2022/07/17 02:47:05;;;;;;;;;;;;;;;26.05;29.78;97359.78;4205251;28;5951;-70
2022/07/17 02:49:08;;;;;;;;;;;;;;;26.01;30.00;97359.50;4217796;28;5801;-70
2022/07/17 02:51:11;;;;;;;;;;;;;;;25.87;30.15;97369.31;4219445;28;6351;-70
2022/07/17 02:53:14;;;;;;;;;;;;;;;25.83;30.23;97369.09;4219281;28;5661;-70
2022/07/17 02:55:18;;;;;;;;;;;;;;;25.84;30.47;97367.19;4204353;28;5694;-70
2022/07/17 02:57:21;;;;;;;;;;;;;;;25.80;30.66;97366.09;4201844;28;5820;-70
2022/07/17 02:59:24;;;;;;;;;;;;;;;25.76;30.53;97371.25;4203890;28;5682;-70
2022/07/17 03:01:28;;;;;;;;;;;;;;;25.70;30.33;97374.25;4218923;28;5698;-70
2022/07/17 03:03:32;;;;;;;;;;;;;;;25.67;30.52;97366.66;4205867;28;5784;-70
2022/07/17 03:05:38;;;;;;;;;;;;;;;25.71;30.33;97365.03;4201686;28;5678;-70
2022/07/17 03:07:41;;;;;;;;;;;;;;;25.75;30.45;97360.72;4202808;28;5712;-70
2022/07/17 03:09:44;;;;;;;;;;;;;;;25.80;30.57;97364.19;4204763;28;5690;-70
2022/07/17 03:11:47;;;;;;;;;;;;;;;25.84;30.17;97359.06;4206956;28;5693;-70
2022/07/17 03:13:50;;;;;;;;;;;;;;;25.86;30.39;97370.41;4219005;28;5782;-69
2022/07/17 03:15:53;;;;;;;;;;;;;;;25.83;30.14;97368.28;4207157;28;5702;-69
2022/07/17 03:17:58;;;;;;;;;;;;;;;25.83;30.46;97362.84;4224039;28;5614;-70
2022/07/17 03:20:02;;;;;;;;;;;;;;;25.83;30.37;97369.09;4235689;28;5590;-70
2022/07/17 03:22:05;;;;;;;;;;;;;;;25.85;30.72;97363.38;4223597;28;5752;-70
2022/07/17 03:24:08;;;;;;;;;;;;;;;25.87;30.81;97369.31;4218325;28;5794;-70
2022/07/17 03:26:11;;;;;;;;;;;;;;;25.87;30.94;97368.53;4218523;28;5656;-70
2022/07/17 03:28:14;;;;;;;;;;;;;;;25.87;30.99;97368.53;4222464;28;5606;-70
2022/07/17 03:30:17;;;;;;;;;;;;;;;25.87;30.84;97368.53;4229140;28;5704;-70
2022/07/17 03:32:20;;;;;;;;;;;;;;;25.87;30.62;97368.53;4218476;28;5747;-70
2022/07/17 03:34:24;;;;;;;;;;;;;;;25.86;31.01;97367.72;4218542;28;5729;-70
2022/07/17 03:36:27;;;;;;;;;;;;;;;25.86;30.66;97364.19;4227517;28;6472;-70
2022/07/17 03:38:30;;;;;;;;;;;;;;;25.85;30.55;97360.69;4218163;28;5822;-70
2022/07/17 03:40:34;;;;;;;;;;;;;;;25.83;30.61;97358.25;4222339;28;5623;-70
2022/07/17 03:42:37;;;;;;;;;;;;;;;25.77;31.05;97363.94;4234399;28;5673;-70
2022/07/17 03:44:40;;;;;;;;;;;;;;;25.76;31.11;97362.34;4211498;28;5662;-69
2022/07/17 03:46:43;;;;;;;;;;;;;;;25.74;31.20;97364.50;4227279;28;5821;-70
2022/07/17 03:48:46;;;;;;;;;;;;;;;25.77;30.73;97366.66;4234143;28;5622;-69
2022/07/17 03:50:50;;;;;;;;;;;;;;;25.77;30.89;97367.47;4221406;28;5834;-70
2022/07/17 03:52:53;;;;;;;;;;;;;;;25.78;31.04;97370.97;4218029;28;5645;-69
2022/07/17 03:54:56;;;;;;;;;;;;;;;25.77;31.09;97372.06;4205826;28;5625;-70
2022/07/17 03:56:59;;;;;;;;;;;;;;;25.74;31.32;97373.44;4231193;28;5764;-69
2022/07/17 03:59:02;;;;;;;;;;;;;;;25.73;31.14;97368.31;4226299;28;5871;-69
2022/07/17 04:01:05;;;;;;;;;;;;;;;25.72;31.43;97366.69;4215251;28;5616;-71
2022/07/17 04:03:08;;;;;;;;;;;;;;;25.72;31.10;97372.09;4234771;28;5681;-69
2022/07/17 04:05:12;;;;;;;;;;;;;;;25.71;31.57;97373.16;4229434;28;6497;-69
2022/07/17 04:07:29;;;;;;;;;;;;;;;25.71;31.28;97370.47;4229945;28;5680;-70
2022/07/17 04:09:32;;;;;;;;;;;;;;;25.70;31.64;97374.25;4230341;28;5605;-70
2022/07/17 04:11:35;;;;;;;;;;;;;;;25.67;31.87;97364.75;4223395;28;5608;-69
2022/07/17 04:13:38;;;;;;;;;;;;;;;25.68;31.47;97365.56;4217366;28;5748;-70
2022/07/17 04:15:52;;;;;;;;;;;;;;;25.66;31.49;97362.34;4224787;28;5169;-70
2022/07/17 04:17:55;;;;;;;;;;;;;;;25.63;31.63;97363.69;4219967;28;5672;-70
2022/07/17 04:19:59;;;;;;;;;;;;;;;25.62;31.68;97372.09;4227210;28;5724;-70
2022/07/17 04:22:02;;;;;;;;;;;;;;;25.63;31.92;97376.44;4199575;28;6311;-70
2022/07/17 04:24:06;;;;;;;;;;;;;;;25.63;31.89;97371.00;4217510;28;5834;-70
2022/07/17 04:26:09;;;;;;;;;;;;;;;25.63;31.95;97377.25;4233456;28;5847;-71
2022/07/17 04:28:13;;;;;;;;;;;;;;;25.60;31.75;97368.88;4212766;28;5814;-71
2022/07/17 04:30:16;;;;;;;;;;;;;;;25.60;32.05;97374.28;4221552;28;6335;-69
2022/07/17 04:32:19;;;;;;;;;;;;;;;25.57;32.19;97369.41;4226663;28;5797;-70
2022/07/17 04:34:22;;;;;;;;;;;;;;;25.57;31.96;97369.41;4233923;28;5099;-70
2022/07/17 04:36:25;;;;;;;;;;;;;;;25.57;32.08;97370.22;4234285;28;5621;-70
2022/07/17 04:38:28;;;;;;;;;;;;;;;25.57;32.08;97375.63;4212138;28;5720;-70
2022/07/17 04:40:32;;;;;;;;;;;;;;;25.55;32.10;97375.91;4234345;28;5680;-69
2022/07/17 04:42:35;;;;;;;;;;;;;;;25.54;32.42;97374.28;4234398;28;5598;-70
2022/07/17 04:44:38;;;;;;;;;;;;;;;25.54;32.33;97376.19;4233763;28;5593;-70
2022/07/17 04:46:41;;;;;;;;;;;;;;;25.52;32.49;97378.34;4222027;28;5672;-70
2022/07/17 04:48:44;;;;;;;;;;;;;;;25.51;32.44;97379.44;4222892;28;5704;-71
2022/07/17 04:50:47;;;;;;;;;;;;;;;25.49;32.56;97374.31;4232761;28;5594;-70
2022/07/17 04:52:50;;;;;;;;;;;;;;;25.50;32.25;97377.81;4235429;28;5606;-70
2022/07/17 04:54:53;;;;;;;;;;;;;;;25.48;32.50;97378.09;4237285;28;6433;-69
2022/07/17 04:56:57;;;;;;;;;;;;;;;25.49;32.50;97373.50;4219281;28;5620;-69
2022/07/17 04:59:00;;;;;;;;;;;;;;;25.51;32.71;97379.44;4230785;28;5778;-70
2022/07/17 05:01:03;;;;;;;;;;;;;;;25.50;32.36;97370.50;4238140;28;6263;-70
2022/07/17 05:03:06;;;;;;;;;;;;;;;25.53;32.54;97374.56;4234038;28;5842;-70
2022/07/17 05:05:09;;;;;;;;;;;;;;;25.52;32.18;97368.34;4221161;28;5710;-70
2022/07/17 05:07:12;;;;;;;;;;;;;;;25.50;32.78;97367.81;4202745;28;5860;-70
2022/07/17 05:09:15;;;;;;;;;;;;;;;25.51;32.29;97377.53;4220509;28;5609;-70
2022/07/17 05:11:18;;;;;;;;;;;;;;;25.53;32.47;97377.25;4232464;28;5616;-69
2022/07/17 05:13:22;;;;;;;;;;;;;;;25.54;32.54;97371.56;4220532;28;5593;-70
2022/07/17 05:15:25;;;;;;;;;;;;;;;25.57;32.58;97374.81;4225164;28;5621;-69
2022/07/17 05:17:28;;;;;;;;;;;;;;;25.59;32.72;97378.03;4232624;28;5610;-70
2022/07/17 05:19:31;;;;;;;;;;;;;;;25.61;32.83;97381.31;4226872;28;5844;-70
2022/07/17 05:21:34;;;;;;;;;;;;;;;25.61;33.01;97381.31;4220539;28;5621;-70
2022/07/17 05:23:37;;;;;;;;;;;;;;;25.63;32.87;97379.13;4219929;28;5700;-70
2022/07/17 05:25:40;;;;;;;;;;;;;;;25.65;32.67;97376.97;4220473;28;5748;-70
2022/07/17 05:27:43;;;;;;;;;;;;;;;25.67;32.67;97385.59;4220829;28;5629;-70
2022/07/17 05:29:48;;;;;;;;;;;;;;;25.68;32.57;97382.63;4227222;28;5639;-70
2022/07/17 05:31:51;;;;;;;;;;;;;;;25.72;32.58;97377.53;4224712;28;5844;-70
2022/07/17 05:33:54;;;;;;;;;;;;;;;25.74;32.82;97381.56;4236504;28;5630;-70
2022/07/17 05:35:59;;;;;;;;;;;;;;;25.76;32.64;97384.00;4237023;28;5609;-70
2022/07/17 05:38:01;;;;;;;;;;;;;;;25.82;32.87;97381.00;4237187;28;5688;-70
2022/07/17 05:40:06;;;;;;;;;;;;;;;25.97;32.57;97390.97;4227356;28;5707;-69
2022/07/17 05:42:10;;;;;;;;;;;;;;;26.05;32.76;97392.28;4220196;28;5706;-70
2022/07/17 05:44:12;;;;;;;;;;;;;;;26.12;32.77;97393.59;4202011;28;5695;-71
2022/07/17 05:46:17;;;;;;;;;;;;;;;26.27;32.60;97395.41;4224477;28;5616;-71
2022/07/17 05:48:20;;;;;;;;;;;;;;;26.42;32.57;97394.56;4219602;28;5739;-70
2022/07/17 05:50:23;;;;;;;;;;;;;;;26.55;32.39;97390.41;4219607;28;5628;-71
2022/07/17 05:52:26;;;;;;;;;;;;;;;26.75;32.86;97400.31;4220016;28;5604;-71
2022/07/17 05:54:29;;;;;;;;;;;;;;;26.90;32.65;97395.56;4219592;28;5692;-70
2022/07/17 05:56:32;;;;;;;;;;;;;;;27.07;32.30;97397.09;4219405;28;5724;-71
2022/07/17 05:58:35;;;;;;;;;;;;;;;27.18;32.53;97396.75;4222455;28;5829;-71
2022/07/17 06:00:38;;;;;;;;;;;;;;;27.26;32.44;97401.53;4219221;28;5637;-71
2022/07/17 06:02:42;;;;;;;;;;;;;;;27.39;32.43;97391.09;4219987;28;5084;-71
2022/07/17 06:04:45;;;;;;;;;;;;;;;27.53;32.19;97400.22;4218403;28;5822;-71
2022/07/17 06:06:48;;;;;;;;;;;;;;;27.62;32.12;97397.66;4219986;28;5616;-71
2022/07/17 06:08:51;;;;;;;;;;;;;;;27.67;32.41;97403.88;4218871;28;6809;-71
2022/07/17 06:10:56;;;;;;;;;;;;;;;27.71;32.54;97395.94;4221263;28;5609;-71
2022/07/17 06:12:59;;;;;;;;;;;;;;;27.78;32.38;97404.56;4219189;28;5684;-71
2022/07/17 06:15:02;;;;;;;;;;;;;;;27.81;32.47;97401.28;4217984;28;5601;-71
2022/07/17 06:17:06;;;;;;;;;;;;;;;27.81;32.41;97402.09;4228584;28;5688;-70
2022/07/17 06:19:10;;;;;;;;;;;;;;;27.85;32.58;97403.13;4208508;28;5938;-71
2022/07/17 06:21:13;;;;;;;;;;;;;;;27.87;32.52;97402.03;4219500;28;5660;-71
2022/07/17 06:23:16;;;;;;;;;;;;;;;27.95;32.68;97404.91;4201358;28;5749;-71
2022/07/17 06:25:19;;;;;;;;;;;;;;;27.98;32.63;97401.63;4209813;28;5633;-71
2022/07/17 06:27:22;;;;;;;;;;;;;;;28.05;32.63;97401.25;4235387;28;5594;-71
2022/07/17 06:29:25;;;;;;;;;;;;;;;28.13;32.66;97404.16;4222870;28;5703;-71
2022/07/17 06:31:28;;;;;;;;;;;;;;;28.16;32.50;97408.19;4219250;28;5617;-71
2022/07/17 06:33:32;;;;;;;;;;;;;;;28.15;32.55;97409.28;4219323;28;5616;-71
2022/07/17 06:35:36;;;;;;;;;;;;;;;28.14;32.39;97405.75;4219373;28;5169;-71
2022/07/17 06:37:47;;;;;;;;;;;;;;;28.13;32.29;97408.78;4219338;28;5725;-71
2022/07/17 06:39:49;;;;;;;;;;;;;;;28.14;32.52;97407.66;4219331;28;7683;-71
2022/07/17 06:41:52;;;;;;;;;;;;;;;28.16;32.27;97408.19;4218187;28;5609;-71
2022/07/17 06:43:55;;;;;;;;;;;;;;;28.14;32.47;97410.38;4234185;28;5704;-71
2022/07/17 06:45:58;;;;;;;;;;;;;;;28.11;32.79;97410.97;4232911;27;6412;-71
2022/07/17 06:48:02;;;;;;;;;;;;;;;28.11;32.48;97405.53;4226370;28;5594;-71
2022/07/17 06:50:06;;;;;;;;;;;;;;;28.07;32.50;97409.91;4228798;28;5680;-71
2022/07/17 06:52:10;;;;;;;;;;;;;;;28.00;32.61;97415.72;4233152;28;5593;-71
2022/07/17 06:54:13;;;;;;;;;;;;;;;28.01;32.47;97405.66;4219919;28;5708;-71
2022/07/17 06:56:17;;;;;;;;;;;;;;;28.03;32.68;97417.84;4222335;28;5694;-72
2022/07/17 06:58:19;;;;;;;;;;;;;;;28.05;32.28;97414.84;4229470;28;5605;-72
2022/07/17 07:00:22;;;;;;;;;;;;;;;28.07;32.35;97420.78;4230336;28;6299;-71
2022/07/17 07:02:25;;;;;;;;;;;;;;;28.00;32.72;97409.50;4219646;28;5786;-71
2022/07/17 07:04:28;;;;;;;;;;;;;;;27.99;32.44;97416.84;4218806;28;5624;-71
2022/07/17 07:06:34;;;;;;;;;;;;;;;27.91;32.48;97419.38;4202611;28;5731;-72
2022/07/17 07:08:39;;;;;;;;;;;;;;;27.80;32.40;97419.47;4227762;28;5606;-71
2022/07/17 07:10:42;;;;;;;;;;;;;;;27.78;32.54;97418.16;4233180;28;5597;-73
2022/07/17 07:12:45;;;;;;;;;;;;;;;27.74;32.50;97417.91;4208273;28;5742;-71
2022/07/17 07:14:48;;;;;;;;;;;;;;;27.66;32.67;97429.41;4221715;27;5624;-71
2022/07/17 07:16:51;;;;;;;;;;;;;;;27.58;32.73;97419.16;4212559;28;5621;-71
2022/07/17 07:18:55;;;;;;;;;;;;;;;27.57;32.78;97422.97;4218664;28;5680;-71
2022/07/17 07:20:57;;;;;;;;;;;;;;;27.54;32.81;97423.53;4224652;28;5601;-70
2022/07/17 07:23:00;;;;;;;;;;;;;;;27.50;32.54;97426.00;4214381;28;5597;-71
2022/07/17 07:25:10;;;;;;;;;;;;;;;27.50;32.76;97434.16;4231472;27;5817;-71
2022/07/17 07:27:13;;;;;;;;;;;;;;;27.46;32.56;97437.72;4233764;28;5790;-71
2022/07/17 07:29:16;;;;;;;;;;;;;;;27.45;32.65;97436.94;4233792;28;5598;-71
2022/07/17 07:31:19;;;;;;;;;;;;;;;27.40;33.08;97428.00;4222283;28;5612;-71
2022/07/17 07:33:22;;;;;;;;;;;;;;;27.37;32.88;97434.81;4222360;28;5610;-71
2022/07/17 07:35:26;;;;;;;;;;;;;;;27.36;33.01;97433.19;4233120;28;5626;-71
2022/07/17 07:37:29;;;;;;;;;;;;;;;27.36;32.99;97443.25;4215860;28;5621;-71
2022/07/17 07:39:32;;;;;;;;;;;;;;;27.31;32.98;97438.69;4225664;28;7336;-71
2022/07/17 07:41:36;;;;;;;;;;;;;;;27.24;33.26;97447.16;4231055;28;5817;-71
2022/07/17 07:43:39;;;;;;;;;;;;;;;27.12;33.35;97437.75;4233408;28;5619;-71
2022/07/17 07:45:43;;;;;;;;;;;;;;;27.09;33.23;97443.75;4218266;28;5617;-71
2022/07/17 07:47:49;;;;;;;;;;;;;;;27.10;33.69;97440.75;4225304;28;5608;-70
2022/07/17 07:49:52;;;;;;;;;;;;;;;27.12;33.74;97432.34;4216819;27;5836;-67
2022/07/17 07:51:55;;;;;;;;;;;;;;;27.12;33.69;97437.75;4220318;27;5681;-68
2022/07/17 07:54:05;;;;;;;;;;;;;;;27.09;33.76;97433.72;4229933;28;6929;-69
2022/07/17 07:56:08;;;;;;;;;;;;;;;27.09;34.11;97438.34;4230115;28;5602;-83
2022/07/17 07:58:14;;;;;;;;;;;;;;;27.10;34.10;97429.91;4234688;28;5598;-70
2022/07/17 08:00:18;;;;;;;;;;;;;;;27.09;34.23;97439.16;4227100;28;5627;-69
2022/07/17 08:02:21;;;;;;;;;;;;;;;27.12;33.87;97448.63;4217172;28;5831;-68
2022/07/17 08:04:24;;;;;;;;;;;;;;;27.08;34.36;97442.97;4221488;28;5594;-67
2022/07/17 08:06:27;;;;;;;;;;;;;;;27.04;34.38;97450.03;4226221;28;5646;-68
2022/07/17 08:08:29;;;;;;;;;;;;;;;26.99;34.47;97450.84;4225376;28;5636;-67
2022/07/17 08:10:41;;;;;;;;;;;;;;;26.98;34.39;97446.53;4208774;28;5137;-68
2022/07/17 08:12:47;;;;;;;;;;;;;;;27.00;34.59;97451.66;4229260;28;5681;-69
2022/07/17 08:14:52;;;;;;;;;;;;;;;27.03;34.50;97453.03;4221722;27;5759;-69
2022/07/17 08:16:55;;;;;;;;;;;;;;;26.97;34.67;97457.66;4216586;28;5747;-69
2022/07/17 08:18:58;;;;;;;;;;;;;;;26.89;34.77;97450.91;4201772;28;5866;-69
2022/07/17 08:21:02;;;;;;;;;;;;;;;26.92;34.98;97449.53;4224716;28;5694;-70
2022/07/17 08:23:04;;;;;;;;;;;;;;;26.91;34.90;97450.63;4210553;28;5737;-70
2022/07/17 08:25:09;;;;;;;;;;;;;;;26.87;34.97;97444.97;4217714;28;5646;-70
2022/07/17 08:27:12;;;;;;;;;;;;;;;26.87;34.98;97452.31;4226911;28;5602;-70
2022/07/17 08:29:15;;;;;;;;;;;;;;;26.89;35.04;97445.50;4216854;28;5688;-69
2022/07/17 08:31:40;;;;;;;;;;;;;;;26.89;35.23;97459.06;4229823;28;5721;-69
2022/07/17 08:33:43;;;;;;;;;;;;;;;26.92;35.04;97453.06;4219306;28;5620;-69
2022/07/17 08:35:46;;;;;;;;;;;;;;;26.95;35.31;97455.22;4217416;28;5802;-69
2022/07/17 08:37:52;;;;;;;;;;;;;;;26.97;35.14;97457.66;4219498;28;5613;-69
2022/07/17 08:39:54;;;;;;;;;;;;;;;26.96;35.36;97451.44;4216263;28;5615;-70
2022/07/17 08:41:58;;;;;;;;;;;;;;;26.98;35.53;97449.25;4216958;28;5838;-69
2022/07/17 08:44:01;;;;;;;;;;;;;;;26.95;35.78;97452.50;4217596;28;5744;-69
2022/07/17 08:46:04;;;;;;;;;;;;;;;26.91;35.42;97448.72;4218794;28;7688;-68
2022/07/17 08:48:13;;;;;;;;;;;;;;;26.87;35.82;97452.31;4229806;27;5828;-69
2022/07/17 08:50:16;;;;;;;;;;;;;;;26.89;35.73;97455.53;4227606;28;5668;-68
2022/07/17 08:52:19;;;;;;;;;;;;;;;26.93;35.70;97459.31;4219322;28;6472;-69
2022/07/17 08:54:23;;;;;;;;;;;;;;;26.89;35.69;97450.13;4217276;28;5613;-68
2022/07/17 08:56:27;;;;;;;;;;;;;;;26.82;36.00;97455.84;4225066;28;5712;-68
2022/07/17 08:58:31;;;;;;;;;;;;;;;26.77;35.95;97453.19;4232967;28;5602;-66
2022/07/17 09:00:35;;;;;;;;;;;;;;;26.76;35.99;97453.47;4221335;28;5947;-69
2022/07/17 09:02:38;;;;;;;;;;;;;;;26.76;36.00;97450.75;4217246;28;5608;-67
2022/07/17 09:04:43;;;;;;;;;;;;;;;26.76;36.12;97451.56;4216531;28;5617;-72
2022/07/17 09:06:46;;;;;;;;;;;;;;;26.74;35.95;97463.78;4217394;28;5667;-75
2022/07/17 09:08:49;;;;;;;;;;;;;;;26.77;36.33;97453.19;4217156;28;5617;-71
2022/07/17 09:10:54;;;;;;;;;;;;;;;26.74;36.25;97452.94;4203227;28;5609;-78
2022/07/17 09:12:57;;;;;;;;;;;;;;;26.75;35.94;97454.56;4224668;28;5656;-79
2022/07/17 09:15:00;;;;;;;;;;;;;;;26.77;35.94;97457.78;4223620;28;5629;-76
2022/07/17 09:17:05;;;;;;;;;;;;;;;26.82;35.76;97447.72;4216255;28;5608;-77
2022/07/17 09:19:08;;;;;;;;;;;;;;;26.89;36.15;97452.81;4222143;27;5123;-80
2022/07/17 09:21:19;;;;;;;;;;;;;;;26.96;35.91;97456.03;4220079;27;5637;-75
2022/07/17 09:23:23;;;;;;;;;;;;;;;26.95;36.38;97459.81;4220975;28;5635;-72
2022/07/17 09:25:37;;;;;;;;;;;;;;;26.92;36.09;97460.41;4231621;27;5738;-75
2022/07/17 09:27:39;;;;;;;;;;;;;;;26.92;36.39;97450.34;4217646;28;5624;-76
2022/07/17 09:29:54;;;;;;;;;;;;;;;26.98;36.26;97453.84;4229016;28;5602;-74
2022/07/17 09:31:57;;;;;;;;;;;;;;;27.05;36.14;97448.13;4225865;28;5790;-74
2022/07/17 09:34:01;;;;;;;;;;;;;;;27.08;36.32;97445.66;4216539;28;5704;-75
2022/07/17 09:36:09;;;;;;;;;;;;;;;27.12;36.50;97446.72;4218028;27;5807;-75
2022/07/17 09:38:26;;;;;;;;;;;;;;;27.12;36.44;97448.63;4220034;28;5714;-67
2022/07/17 09:42:56;;;;;;;;;;;;;;;27.18;36.20;97445.59;4221664;28;5633;-72
2022/07/17 09:45:04;;;;;;;;;;;;;;;27.18;36.50;97451.03;4221814;28;5597;-72
2022/07/17 09:47:08;;;;;;;;;;;;;;;27.18;36.22;97448.31;4221510;28;5683;-72
2022/07/17 09:49:13;;;;;;;;;;;;;;;27.21;36.22;97455.06;4218538;28;5617;-82
2022/07/17 09:51:21;;;;;;;;;;;;;;;27.22;36.53;97460.19;4233532;28;5738;-71
2022/07/17 09:53:26;;;;;;;;;;;;;;;27.25;36.31;97454.19;4232284;27;5613;-70
2022/07/17 09:55:31;;;;;;;;;;;;;;;27.31;36.22;97456.88;4226094;28;5622;-71
2022/07/17 09:57:54;;;;;;;;;;;;;;;27.33;36.44;97454.69;4235264;28;5606;-71
2022/07/17 10:00:02;;;;;;;;;;;;;;;27.35;36.13;97455.22;4236998;28;5071;-71
2022/07/17 10:02:05;;;;;;;;;;;;;;;27.35;36.06;97469.59;4226120;28;5848;-70
2022/07/17 10:04:10;;;;;;;;;;;;;;;27.34;36.08;97461.75;4229477;28;5718;-70
2022/07/17 10:06:13;;;;;;;;;;;;;;;27.33;36.35;97455.50;4224555;28;5710;-72
2022/07/17 10:08:16;;;;;;;;;;;;;;;27.36;36.21;97460.34;4236625;28;5785;-71
2022/07/17 10:10:21;;;;;;;;;;;;;;;27.39;36.25;97457.06;4234470;28;5703;-71
2022/07/17 10:12:24;;;;;;;;;;;;;;;27.40;36.25;97455.16;4235136;28;5823;-71
2022/07/17 10:14:28;;;;;;;;;;;;;;;27.42;35.91;97453.00;4225180;28;5608;-71
2022/07/17 10:16:33;;;;;;;;;;;;;;;27.47;35.95;97455.66;4217298;27;5683;-69
2022/07/17 10:18:40;;;;;;;;;;;;;;;27.51;35.86;97457.50;4218854;28;6303;-69
2022/07/17 10:20:43;;;;;;;;;;;;;;;27.54;36.07;97456.13;4218984;28;5791;-68
2022/07/17 10:22:47;;;;;;;;;;;;;;;27.57;35.85;97460.97;4219469;28;6456;-68
2022/07/17 10:24:52;;;;;;;;;;;;;;;27.57;35.99;97452.84;4220404;28;5710;-66
2022/07/17 10:26:57;;;;;;;;;;;;;;;27.60;35.96;97449.53;4220494;28;5636;-66
2022/07/17 10:29:03;;;;;;;;;;;;;;;27.63;36.08;97448.97;4219100;28;5707;-66
2022/07/17 10:31:06;;;;;;;;;;;;;;;27.66;36.14;97448.44;4227396;28;5618;-68
2022/07/17 10:33:09;;;;;;;;;;;;;;;27.67;36.25;97443.81;4225216;28;5799;-71
2022/07/17 10:35:12;;;;;;;;;;;;;;;27.67;36.24;97450.06;4219136;28;5748;-80
2022/07/17 10:37:20;;;;;;;;;;;;;;;27.69;36.03;97447.84;4220045;28;5621;-73
2022/07/17 10:39:23;;;;;;;;;;;;;;;27.71;36.02;97448.38;4226198;27;5605;-69
2022/07/17 10:41:26;;;;;;;;;;;;;;;27.74;35.98;97445.06;4219135;28;5628;-66
2022/07/17 10:43:42;;;;;;;;;;;;;;;27.78;36.12;97446.13;4234366;27;5724;-63
2022/07/17 10:45:47;;;;;;;;;;;;;;;27.79;36.23;97450.47;4225584;28;5699;-71
2022/07/17 10:47:53;;;;;;;;;;;;;;;27.82;36.20;97452.59;4224710;28;5646;-74
2022/07/17 10:49:56;;;;;;;;;;;;;;;27.84;35.84;97455.84;4226848;28;5608;-65
2022/07/17 10:51:59;;;;;;;;;;;;;;;27.85;35.92;97460.16;4218584;28;5605;-68
2022/07/17 10:54:02;;;;;;;;;;;;;;;27.88;36.13;97449.84;4229773;28;5715;-68
2022/07/17 10:56:07;;;;;;;;;;;;;;;27.92;36.44;97445.44;4226250;28;5663;-69
2022/07/17 10:58:18;;;;;;;;;;;;;;;27.96;36.30;97446.47;4234510;28;5681;-68